Portada
METAR-TAF:

METAR-TAF

Aeropuertos :

Logroño, España

Aeropuerto de Logroño-Agoncillo

latitud: 42-27N, longitud: 002-20W, altitud: 353 m

Observación

El informe se hizo hace 22 minutos, a las 11:00 UTC
Viento 5 kt del este-sureste, variando entre este-noreste y sur-sureste
Temperatura 12°C
Humedad 62%
Presión 1017 hPa
Visibilidad: 9000 m
Nubes dispersas a una altura de 6500 ft

METAR: LELO 231100Z 12005KT 060V160 9000 SCT065 12/05 Q1017

Hora: 12:22 (11:22 UTC)

Pronóstico

El informe se hizo hace 3 horas y 22 minutos, a las 08:00 UTC
Pronóstico válido del 23 a las 09 UTC al 23 a las 18 UTC
Viento 5 kt con dirección variable
Visibilidad 10 km o más
Escasas nubes a una altura de 4000 ft

TAF: LELO 230800Z 2309/2318 VRB05KT 9999 FEW040

Observaciones y pronósticos meteorológicos de más de 4000 aeropuertos (mensajes METAR y TAF).

Los puntos amarillos y rojos representan las estaciones disponibles.

Ponga el ratón en el punto deseado para ver el nombre de la estación.

Haga clic para ver las observaciones y los pronósticos meteorológicos.

Para cambiar el mapa : haga clic en los botones verdes con una cruz de color negro para hacer un zoom, en el botón verde con un guión para alejar o en las flechas verdes para mapas adyacentes.


METAR-TAF: